Time;durP1;ratioP1;P1;durP2;ratioP2;P2;SDS_P1;SDS_P2;PMS_P1;PMS_P2;Temp;Humidity;BMP_temperature;BMP_pressure;BME280_temperature;BME280_humidity;BME280_pressure;Samples;Min_cycle;Max_cycle;Signal;HPM_P1;HPM_P2
2023/09/28 00:02:54;;;;;;;1.40;1.30;;;17.90;1.00;;;;;;5032358;28;20073;-63
2023/09/28 00:05:20;;;;;;;1.30;1.20;;;17.90;1.00;;;;;;5032675;28;20397;-63
2023/09/28 00:07:47;;;;;;;1.20;1.10;;;17.80;1.00;;;;;;5014626;28;20128;-63
2023/09/28 00:10:17;;;;;;;1.67;1.25;;;17.80;1.00;;;;;;5032582;28;20041;-63
2023/09/28 00:12:49;;;;;;;1.38;1.23;;;17.70;1.00;;;;;;5032601;28;20042;-63
2023/09/28 00:15:16;;;;;;;1.40;1.30;;;17.70;1.00;;;;;;5032534;28;20128;-63
2023/09/28 00:17:43;;;;;;;1.25;1.13;;;17.70;1.00;;;;;;5034176;28;20057;-67
2023/09/28 00:20:13;;;;;;;1.45;1.35;;;17.70;1.00;;;;;;5036029;28;20103;-67
2023/09/28 00:22:42;;;;;;;1.50;1.30;;;17.70;1.00;;;;;;5036129;28;20407;-67
2023/09/28 00:25:11;;;;;;;1.65;1.55;;;17.70;1.00;;;;;;5018064;28;20049;-67
2023/09/28 00:27:38;;;;;;;1.40;1.30;;;17.70;1.00;;;;;;5035833;28;20048;-67
2023/09/28 00:30:10;;;;;;;1.95;1.40;;;17.70;1.00;;;;;;5035738;28;20076;-67
2023/09/28 00:32:36;;;;;;;1.30;1.20;;;17.70;1.00;;;;;;5035980;28;20038;-67
2023/09/28 00:35:04;;;;;;;1.67;1.58;;;17.60;1.00;;;;;;5035972;28;20045;-67
2023/09/28 00:37:30;;;;;;;1.25;1.15;;;17.60;1.00;;;;;;5017941;28;20125;-67
2023/09/28 00:39:56;;;;;;;1.63;1.30;;;17.60;1.00;;;;;;5035711;28;20048;-67
2023/09/28 00:42:22;;;;;;;1.50;1.40;;;17.60;1.00;;;;;;5035839;28;20038;-67
2023/09/28 00:44:48;;;;;;;1.27;1.17;;;17.60;1.00;;;;;;5035800;28;20476;-67
2023/09/28 00:47:15;;;;;;;1.40;1.30;;;17.60;1.00;;;;;;5035463;28;20228;-67
2023/09/28 00:49:43;;;;;;;1.35;1.25;;;17.60;1.00;;;;;;5035648;28;20045;-68
2023/09/28 00:52:10;;;;;;;1.20;1.10;;;17.60;1.00;;;;;;5035637;28;20421;-67
2023/09/28 00:54:38;;;;;;;1.48;1.38;;;17.60;1.00;;;;;;5035548;28;20041;-67
2023/09/28 00:57:06;;;;;;;1.55;1.17;;;17.70;1.00;;;;;;5035712;28;20512;-63
2023/09/28 00:59:32;;;;;;;1.15;1.05;;;17.70;1.00;;;;;;5035443;28;20512;-63
2023/09/28 01:01:59;;;;;;;1.48;1.25;;;17.70;1.00;;;;;;5035115;28;20045;-63
2023/09/28 01:04:26;;;;;;;1.13;1.05;;;17.70;1.00;;;;;;5035393;28;20033;-62
2023/09/28 01:06:51;;;;;;;1.10;1.00;;;17.80;1.00;;;;;;5017319;28;20056;-63
2023/09/28 01:09:17;;;;;;;2.15;1.33;;;17.80;1.00;;;;;;5035301;28;20477;-63
2023/09/28 01:11:43;;;;;;;1.60;1.27;;;17.80;1.00;;;;;;5034941;28;20044;-62
2023/09/28 01:14:09;;;;;;;1.20;1.10;;;17.80;1.00;;;;;;5035146;28;20037;-63
2023/09/28 01:16:36;;;;;;;0.98;0.98;;;17.90;1.00;;;;;;5034879;28;20054;-63
2023/09/28 01:19:02;;;;;;;1.73;1.30;;;17.90;1.00;;;;;;5017068;28;20445;-63
2023/09/28 01:21:30;;;;;;;1.05;0.95;;;17.90;1.00;;;;;;5017086;28;20074;-65
2023/09/28 01:23:57;;;;;;;0.93;0.93;;;17.90;1.00;;;;;;5034725;28;20038;-63
2023/09/28 01:26:22;;;;;;;0.70;0.70;;;17.80;1.00;;;;;;5035108;28;20037;-67
2023/09/28 01:28:48;;;;;;;1.00;1.00;;;17.90;1.00;;;;;;5034446;28;20052;-67
2023/09/28 01:31:14;;;;;;;1.10;1.00;;;17.80;1.00;;;;;;5034699;28;20037;-67
2023/09/28 01:33:40;;;;;;;0.70;0.70;;;17.90;1.00;;;;;;5058126;22;20041;-65
2023/09/28 01:36:06;;;;;;;1.05;0.95;;;17.90;1.00;;;;;;5020452;28;20048;-65
2023/09/28 01:38:56;;;;;;;0.80;0.80;;;17.90;1.00;;;;;;5036918;28;20045;-65
2023/09/28 01:41:22;;;;;;;1.30;1.20;;;17.90;1.00;;;;;;5054726;28;20131;-65
2023/09/28 01:43:48;;;;;;;1.70;1.35;;;17.90;1.00;;;;;;5036826;28;20575;-65
2023/09/28 01:46:14;;;;;;;1.10;0.95;;;17.90;1.00;;;;;;5036461;28;20045;-65
2023/09/28 01:48:40;;;;;;;1.00;0.90;;;17.90;99.90;;;;;;5054566;28;20391;-65
2023/09/28 01:51:05;;;;;;;0.77;0.77;;;17.90;99.90;;;;;;5054405;28;20427;-65
2023/09/28 01:53:32;;;;;;;1.50;1.17;;;17.90;99.90;;;;;;5054426;28;20036;-65
2023/09/28 01:56:02;;;;;;;1.23;0.80;;;17.90;99.90;;;;;;5054394;28;20113;-65
2023/09/28 01:58:29;;;;;;;0.80;0.80;;;17.90;99.90;;;;;;5054295;28;20515;-65
2023/09/28 02:00:56;;;;;;;0.98;0.98;;;17.90;99.90;;;;;;5036126;28;20084;-65
2023/09/28 02:03:22;;;;;;;0.75;0.73;;;17.90;99.90;;;;;;5036364;28;20053;-65
2023/09/28 02:05:52;;;;;;;1.00;0.90;;;17.80;99.90;;;;;;5054245;28;20032;-65
2023/09/28 02:08:19;;;;;;;1.60;1.10;;;17.80;99.90;;;;;;5054197;28;20040;-65
2023/09/28 02:10:45;;;;;;;1.23;1.00;;;17.80;99.90;;;;;;5053809;28;20048;-65
2023/09/28 02:13:11;;;;;;;1.00;0.90;;;17.80;99.90;;;;;;5035868;28;20052;-65
2023/09/28 02:15:37;;;;;;;1.00;0.95;;;17.80;99.90;;;;;;5054036;28;20400;-65
2023/09/28 02:18:04;;;;;;;1.00;1.00;;;17.80;99.90;;;;;;5053951;28;20037;-65
2023/09/28 02:20:30;;;;;;;1.15;1.05;;;17.80;99.90;;;;;;5053544;28;20051;-65
2023/09/28 02:22:57;;;;;;;1.38;1.27;;;17.80;99.90;;;;;;5035840;28;20454;-65
2023/09/28 02:25:24;;;;;;;0.93;0.82;;;17.70;99.90;;;;;;5053806;28;20071;-65
2023/09/28 02:27:51;;;;;;;1.00;1.00;;;17.70;99.90;;;;;;5053918;28;20487;-65
2023/09/28 02:30:19;;;;;;;1.25;1.15;;;17.70;99.90;;;;;;5053782;28;20037;-65
2023/09/28 02:32:47;;;;;;;2.00;1.17;;;17.60;99.90;;;;;;5053281;28;20044;-65
2023/09/28 02:35:14;;;;;;;0.80;0.77;;;17.60;99.90;;;;;;5035839;28;20124;-65
2023/09/28 02:37:44;;;;;;;1.08;1.00;;;17.60;99.90;;;;;;5053346;28;20037;-65
2023/09/28 02:40:12;;;;;;;0.95;0.93;;;17.60;99.90;;;;;;5052739;28;20119;-65
2023/09/28 02:42:38;;;;;;;1.17;1.08;;;17.50;99.90;;;;;;5053761;28;20037;-65
2023/09/28 02:45:11;;;;;;;1.08;0.90;;;17.50;99.90;;;;;;5053552;28;20040;-66
2023/09/28 02:47:41;;;;;;;1.17;1.00;;;17.50;99.90;;;;;;5053416;28;20473;-66
2023/09/28 02:50:09;;;;;;;1.15;0.90;;;17.40;99.90;;;;;;5053438;28;20045;-66
2023/09/28 02:52:36;;;;;;;0.88;0.88;;;17.40;1.00;;;;;;5053314;28;20041;-66
2023/09/28 02:55:04;;;;;;;1.08;0.98;;;17.40;1.00;;;;;;5053132;28;20415;-65
2023/09/28 02:57:29;;;;;;;0.90;0.90;;;17.30;1.00;;;;;;5053313;28;20049;-65
2023/09/28 02:59:55;;;;;;;1.00;0.90;;;17.30;1.00;;;;;;5052939;28;20499;-65
2023/09/28 03:02:21;;;;;;;0.70;0.70;;;17.30;1.00;;;;;;5052997;28;20178;-65
2023/09/28 03:04:46;;;;;;;1.17;1.08;;;17.20;1.00;;;;;;5053333;28;20571;-65
2023/09/28 03:07:12;;;;;;;1.25;1.00;;;17.20;1.00;;;;;;5052851;28;20104;-65
2023/09/28 03:09:38;;;;;;;1.00;0.90;;;17.30;1.00;;;;;;5053116;28;20133;-65
2023/09/28 03:12:04;;;;;;;1.33;1.05;;;17.20;1.00;;;;;;5053105;28;20036;-65
2023/09/28 03:14:29;;;;;;;1.38;1.02;;;17.20;1.00;;;;;;5053174;28;20384;-65
2023/09/28 03:16:55;;;;;;;0.73;0.73;;;17.20;1.00;;;;;;5053113;28;20045;-65
2023/09/28 03:19:21;;;;;;;1.15;1.05;;;17.10;1.00;;;;;;5052936;28;20403;-65
2023/09/28 03:21:47;;;;;;;1.20;0.82;;;17.20;1.00;;;;;;5035364;28;20121;-65
2023/09/28 03:24:12;;;;;;;0.80;0.80;;;17.20;1.00;;;;;;5052935;28;20037;-65
2023/09/28 03:26:38;;;;;;;1.27;1.17;;;17.10;1.00;;;;;;5052713;28;20400;-65
2023/09/28 03:29:04;;;;;;;1.58;1.30;;;17.20;1.00;;;;;;5052942;28;20037;-65
2023/09/28 03:31:32;;;;;;;1.15;1.05;;;17.10;1.00;;;;;;5052917;28;20457;-65
2023/09/28 03:33:58;;;;;;;1.10;1.00;;;17.20;1.00;;;;;;5052572;28;20099;-65
2023/09/28 03:36:24;;;;;;;1.17;1.00;;;17.20;1.00;;;;;;5052852;28;20484;-65
2023/09/28 03:38:50;;;;;;;1.23;1.13;;;17.20;1.00;;;;;;5052858;28;20045;-65
2023/09/28 03:41:17;;;;;;;1.55;1.27;;;17.20;1.00;;;;;;5052751;28;20041;-65
2023/09/28 03:43:48;;;;;;;1.35;0.90;;;17.20;1.00;;;;;;5052854;28;20037;-65
2023/09/28 03:46:18;;;;;;;1.58;1.30;;;17.10;1.00;;;;;;5052549;28;20400;-65
2023/09/28 03:48:45;;;;;;;1.45;1.25;;;17.10;1.00;;;;;;5052540;28;20041;-65
2023/09/28 03:51:11;;;;;;;1.38;1.27;;;17.10;1.00;;;;;;5053918;28;20053;-65
2023/09/28 03:53:39;;;;;;;0.88;0.88;;;17.00;1.00;;;;;;5056727;28;20040;-65
2023/09/28 03:56:05;;;;;;;1.00;0.90;;;17.00;1.00;;;;;;5056781;28;20098;-66
2023/09/28 03:58:31;;;;;;;1.13;1.05;;;17.00;1.00;;;;;;5056331;28;20040;-66
2023/09/28 04:00:58;;;;;;;1.20;1.10;;;17.00;1.00;;;;;;5056526;28;20526;-66
2023/09/28 04:03:24;;;;;;;1.17;1.08;;;17.00;1.00;;;;;;5056527;28;20060;-66
2023/09/28 04:05:50;;;;;;;1.15;1.05;;;16.90;1.00;;;;;;5056398;28;20124;-66
2023/09/28 04:08:15;;;;;;;1.20;1.10;;;16.90;1.00;;;;;;5056377;28;20068;-66
2023/09/28 04:10:41;;;;;;;1.40;1.02;;;16.90;1.00;;;;;;5038225;28;20044;-66
2023/09/28 04:13:08;;;;;;;3.03;1.00;;;16.90;1.00;;;;;;5056327;28;20038;-66
2023/09/28 04:15:33;;;;;;;1.42;1.05;;;16.80;1.00;;;;;;5056000;28;20037;-66
2023/09/28 04:18:00;;;;;;;1.10;0.90;;;16.80;5.80;;;;;;5056143;28;20044;-66
2023/09/28 04:20:26;;;;;;;1.13;1.00;;;16.90;16.10;;;;;;5056029;28;20461;-66
2023/09/28 04:22:52;;;;;;;1.30;1.20;;;16.70;17.20;;;;;;5056140;28;20045;-66
2023/09/28 04:25:20;;;;;;;1.65;1.00;;;16.70;15.20;;;;;;5056073;28;20036;-66
2023/09/28 04:27:47;;;;;;;1.20;1.05;;;16.70;20.10;;;;;;5056102;28;20032;-66
2023/09/28 04:30:12;;;;;;;1.92;1.20;;;16.70;22.20;;;;;;5055990;28;20044;-67
2023/09/28 04:32:38;;;;;;;0.90;0.90;;;16.60;24.70;;;;;;5055989;28;20098;-67
2023/09/28 04:35:06;;;;;;;1.63;1.30;;;16.60;25.40;;;;;;5055528;28;20053;-67
2023/09/28 04:37:32;;;;;;;1.17;1.08;;;16.60;28.70;;;;;;5055866;28;20044;-72
2023/09/28 04:39:58;;;;;;;1.45;1.27;;;16.60;30.10;;;;;;5037608;28;20037;-67
2023/09/28 04:42:23;;;;;;;1.33;1.23;;;16.60;33.10;;;;;;5055788;28;20043;-67
2023/09/28 04:44:49;;;;;;;1.40;1.30;;;16.60;36.10;;;;;;5055774;28;20119;-73
2023/09/28 04:47:16;;;;;;;1.17;1.08;;;16.50;36.30;;;;;;5055629;28;20043;-67
2023/09/28 04:49:42;;;;;;;1.00;1.00;;;16.50;39.40;;;;;;5055610;28;20048;-66
2023/09/28 04:52:10;;;;;;;1.10;1.00;;;16.50;41.90;;;;;;5037417;28;20476;-66
2023/09/28 04:54:36;;;;;;;1.75;1.42;;;16.50;46.60;;;;;;5055464;28;20099;-67
2023/09/28 04:57:02;;;;;;;1.10;1.00;;;16.50;47.90;;;;;;5055548;28;20041;-67
2023/09/28 04:59:27;;;;;;;1.85;1.30;;;16.50;49.30;;;;;;5055412;28;20536;-67
2023/09/28 05:01:53;;;;;;;1.42;1.20;;;16.90;55.30;;;;;;5055408;28;20499;-67
2023/09/28 05:04:19;;;;;;;1.42;1.33;;;16.70;59.60;;;;;;5054264;28;20037;-66
2023/09/28 05:06:44;;;;;;;1.23;1.13;;;16.40;58.90;;;;;;5055212;28;20056;-65
2023/09/28 05:09:13;;;;;;;0.80;0.80;;;16.40;62.60;;;;;;5037065;28;20044;-65
2023/09/28 05:11:39;;;;;;;1.95;1.02;;;16.40;63.90;;;;;;5055241;28;20569;-65
2023/09/28 05:14:04;;;;;;;0.88;0.88;;;16.40;69.20;;;;;;5054891;28;20040;-65
2023/09/28 05:16:30;;;;;;;1.35;1.08;;;16.30;68.20;;;;;;5054977;28;20029;-66
2023/09/28 05:18:56;;;;;;;1.40;1.30;;;16.30;68.60;;;;;;5020890;28;20037;-66
2023/09/28 05:21:21;;;;;;;1.88;1.40;;;16.30;69.80;;;;;;5036885;28;20041;-69
2023/09/28 05:23:48;;;;;;;1.13;1.05;;;16.30;74.40;;;;;;5054969;28;20079;-67
2023/09/28 05:26:13;;;;;;;0.93;0.93;;;16.30;80.20;;;;;;5055128;28;20037;-66
2023/09/28 05:28:39;;;;;;;1.10;1.00;;;16.30;77.60;;;;;;5054941;28;20063;-66
2023/09/28 05:31:04;;;;;;;1.60;1.50;;;16.20;81.30;;;;;;5036824;28;20480;-67
2023/09/28 05:33:30;;;;;;;1.30;1.20;;;16.20;81.30;;;;;;5054634;28;20519;-69
2023/09/28 05:35:56;;;;;;;1.30;1.20;;;16.20;81.40;;;;;;5054818;28;20511;-67
2023/09/28 05:38:22;;;;;;;1.77;1.67;;;16.20;81.80;;;;;;5054680;28;20087;-66
2023/09/28 05:40:48;;;;;;;1.30;1.00;;;16.20;84.00;;;;;;5054327;28;20452;-66
2023/09/28 05:43:13;;;;;;;1.17;1.08;;;16.10;85.00;;;;;;5036507;28;20041;-66
2023/09/28 05:45:39;;;;;;;1.80;1.40;;;16.20;88.30;;;;;;5036560;28;20484;-66
2023/09/28 05:48:05;;;;;;;1.98;1.33;;;16.10;88.00;;;;;;5036582;28;20545;-67
2023/09/28 05:50:30;;;;;;;1.52;1.30;;;16.10;90.30;;;;;;5054508;28;20153;-66
2023/09/28 05:52:56;;;;;;;1.63;1.20;;;16.10;91.00;;;;;;5054140;28;20048;-65
2023/09/28 05:55:24;;;;;;;1.40;1.30;;;16.20;91.00;;;;;;5054338;28;20045;-67
2023/09/28 05:57:51;;;;;;;1.27;1.17;;;16.10;91.00;;;;;;5054299;28;20037;-67
2023/09/28 06:00:17;;;;;;;1.50;1.40;;;16.10;91.40;;;;;;5054165;28;20041;-67
2023/09/28 06:02:43;;;;;;;1.38;1.25;;;16.10;92.20;;;;;;5053935;28;20147;-68
2023/09/28 06:05:09;;;;;;;2.45;1.30;;;16.00;93.00;;;;;;5036075;28;20048;-66
2023/09/28 06:07:35;;;;;;;1.40;1.15;;;16.10;93.20;;;;;;5036033;28;20041;-67
2023/09/28 06:10:02;;;;;;;1.40;1.30;;;16.10;93.70;;;;;;5054081;28;20049;-67
2023/09/28 06:12:28;;;;;;;1.48;1.38;;;16.10;94.30;;;;;;5054093;28;20535;-66
2023/09/28 06:14:53;;;;;;;1.67;1.58;;;16.00;94.80;;;;;;5054043;28;20041;-67
2023/09/28 06:17:19;;;;;;;0.98;0.98;;;16.00;96.10;;;;;;5053878;28;20059;-71
2023/09/28 06:19:45;;;;;;;1.40;1.30;;;16.00;97.20;;;;;;5019270;28;20037;-68
2023/09/28 06:22:10;;;;;;;2.10;1.90;;;16.00;97.40;;;;;;5035790;28;20052;-65
2023/09/28 06:24:37;;;;;;;1.23;1.13;;;16.10;97.20;;;;;;5053529;28;20044;-65
2023/09/28 06:27:03;;;;;;;1.83;1.10;;;16.10;97.30;;;;;;5053754;28;20388;-65
2023/09/28 06:29:32;;;;;;;1.85;1.00;;;16.10;97.30;;;;;;5053705;28;20044;-68
2023/09/28 06:31:57;;;;;;;1.75;1.23;;;16.10;97.20;;;;;;5053706;28;20496;-69
2023/09/28 06:34:23;;;;;;;1.08;0.93;;;16.10;97.20;;;;;;5035367;28;20089;-68
2023/09/28 06:36:49;;;;;;;2.40;1.60;;;16.20;97.60;;;;;;5035483;28;20420;-69
2023/09/28 06:39:14;;;;;;;1.17;1.05;;;16.30;97.20;;;;;;5035689;28;20049;-69
2023/09/28 06:41:40;;;;;;;1.00;0.90;;;16.30;97.20;;;;;;5053567;28;20045;-68
2023/09/28 06:44:08;;;;;;;1.98;1.33;;;16.30;97.00;;;;;;5018846;28;20045;-68
2023/09/28 06:46:34;;;;;;;1.10;1.00;;;16.30;97.10;;;;;;5018867;28;20041;-68
2023/09/28 06:48:59;;;;;;;1.70;1.27;;;16.40;96.00;;;;;;5018863;28;20396;-70
2023/09/28 06:51:26;;;;;;;1.48;0.98;;;16.50;94.90;;;;;;5018844;28;20049;-65
2023/09/28 06:53:51;;;;;;;2.78;1.55;;;16.50;93.10;;;;;;5053287;28;20045;-65
2023/09/28 06:56:17;;;;;;;1.85;1.33;;;16.60;91.00;;;;;;5053257;28;20033;-65
2023/09/28 06:58:42;;;;;;;2.15;1.33;;;16.60;88.80;;;;;;5035079;28;20488;-65
2023/09/28 07:01:08;;;;;;;1.55;1.20;;;16.60;85.50;;;;;;5035234;28;20301;-65
2023/09/28 07:03:34;;;;;;;1.83;1.20;;;16.60;83.10;;;;;;5035496;28;20041;-65
2023/09/28 07:06:00;;;;;;;4.38;1.77;;;16.60;79.80;;;;;;5035119;28;20045;-65
2023/09/28 07:08:26;;;;;;;2.22;1.10;;;16.80;77.20;;;;;;5053132;28;20040;-65
2023/09/28 07:10:52;;;;;;;2.05;1.13;;;16.80;74.00;;;;;;5035042;28;20043;-65
2023/09/28 07:13:17;;;;;;;3.20;1.67;;;16.90;70.30;;;;;;5053077;28;20033;-65
2023/09/28 07:15:43;;;;;;;3.35;1.75;;;16.90;66.20;;;;;;5053157;28;20055;-65
2023/09/28 07:18:09;;;;;;;2.65;1.60;;;17.00;60.70;;;;;;5053072;28;20094;-66
2023/09/28 07:20:36;;;;;;;2.33;1.45;;;17.10;54.00;;;;;;5053028;28;20472;-66
2023/09/28 07:23:02;;;;;;;3.25;1.58;;;17.10;49.10;;;;;;5052993;28;20120;-66
2023/09/28 07:25:29;;;;;;;2.25;1.20;;;17.10;42.60;;;;;;5035954;28;20037;-66
2023/09/28 07:27:55;;;;;;;3.00;1.35;;;17.20;37.40;;;;;;5041733;28;20043;-65
2023/09/28 07:30:22;;;;;;;3.22;1.25;;;17.20;31.30;;;;;;5059586;28;20415;-66
2023/09/28 07:32:49;;;;;;;2.90;1.60;;;17.30;25.00;;;;;;5059412;28;20051;-66
2023/09/28 07:35:16;;;;;;;3.05;1.60;;;17.30;18.40;;;;;;5059528;28;20041;-65
2023/09/28 07:37:43;;;;;;;2.53;1.27;;;17.40;10.80;;;;;;5059612;28;20037;-65
2023/09/28 07:40:12;;;;;;;2.75;1.70;;;17.20;6.10;;;;;;5059478;28;20590;-65
2023/09/28 07:42:43;;;;;;;2.75;1.63;;;17.50;1.60;;;;;;5041356;28;20471;-65
2023/09/28 07:45:09;;;;;;;2.80;1.38;;;17.40;1.00;;;;;;5059232;28;20116;-65
2023/09/28 07:47:35;;;;;;;2.53;1.60;;;17.60;1.00;;;;;;5059416;28;20082;-65
2023/09/28 07:50:01;;;;;;;3.10;1.90;;;17.60;1.00;;;;;;5059450;28;20044;-65
2023/09/28 07:52:26;;;;;;;2.50;1.38;;;17.60;1.00;;;;;;5059155;28;20040;-65
2023/09/28 07:54:52;;;;;;;4.20;2.17;;;17.60;1.00;;;;;;5041208;28;20124;-65
2023/09/28 07:57:17;;;;;;;3.53;1.77;;;17.80;1.00;;;;;;5059365;28;20468;-65
2023/09/28 07:59:43;;;;;;;6.38;2.55;;;17.80;1.00;;;;;;5041143;28;20048;-65
2023/09/28 08:02:09;;;;;;;2.30;1.30;;;17.80;1.00;;;;;;5058965;28;20545;-65
2023/09/28 08:04:36;;;;;;;2.35;1.50;;;17.80;1.00;;;;;;5059297;28;20037;-65
2023/09/28 08:07:03;;;;;;;4.03;2.13;;;18.10;1.00;;;;;;5059305;28;20029;-65
2023/09/28 08:09:28;;;;;;;3.83;1.63;;;18.00;1.00;;;;;;5058942;28;20102;-65
2023/09/28 08:11:55;;;;;;;2.67;1.63;;;18.10;1.00;;;;;;5059266;28;20076;-65
2023/09/28 08:14:21;;;;;;;3.08;1.80;;;18.00;1.00;;;;;;5059187;28;20048;-65
2023/09/28 08:16:48;;;;;;;3.65;2.22;;;18.20;1.00;;;;;;5059247;28;20079;-65
2023/09/28 08:19:14;;;;;;;4.60;2.15;;;17.90;1.00;;;;;;5059131;28;20094;-65
2023/09/28 08:21:41;;;;;;;4.57;2.28;;;18.50;1.00;;;;;;5059149;28;20037;-65
2023/09/28 08:24:08;;;;;;;3.42;1.70;;;18.30;1.00;;;;;;5040896;28;20102;-65
2023/09/28 08:26:37;;;;;;;4.03;1.92;;;18.30;1.00;;;;;;5059133;28;20076;-65
2023/09/28 08:29:04;;;;;;;3.83;1.70;;;18.30;99.90;;;;;;5059060;28;20115;-65
2023/09/28 08:31:33;;;;;;;5.03;2.00;;;18.30;1.00;;;;;;5059001;28;20392;-65
2023/09/28 08:33:59;;;;;;;3.80;1.70;;;18.40;1.00;;;;;;5058680;28;20110;-65
2023/09/28 08:36:28;;;;;;;3.42;1.77;;;18.40;99.90;;;;;;5059262;28;20037;-66
2023/09/28 08:38:54;;;;;;;3.15;1.60;;;18.40;99.90;;;;;;5036554;28;20068;-67
2023/09/28 08:41:36;;;;;;;3.75;1.90;;;18.40;99.90;;;;;;5037614;28;20041;-67
2023/09/28 08:44:06;;;;;;;3.65;2.05;;;18.50;99.90;;;;;;5055794;28;20071;-67
2023/09/28 08:46:38;;;;;;;4.13;2.33;;;18.50;99.90;;;;;;5055476;28;20039;-67
2023/09/28 08:49:05;;;;;;;2.75;1.58;;;18.60;99.90;;;;;;5037610;28;20276;-67
2023/09/28 08:51:33;;;;;;;3.28;2.08;;;18.50;99.90;;;;;;5037590;28;20047;-67
2023/09/28 08:54:02;;;;;;;4.07;1.85;;;18.50;99.90;;;;;;5055631;28;20041;-67
2023/09/28 08:56:29;;;;;;;3.15;1.85;;;18.70;99.90;;;;;;5055238;28;20044;-67
2023/09/28 08:58:57;;;;;;;4.90;2.70;;;18.70;99.90;;;;;;5037393;28;20484;-67
2023/09/28 09:01:23;;;;;;;4.20;1.65;;;18.70;99.90;;;;;;5037335;28;20120;-67
2023/09/28 09:03:50;;;;;;;4.55;2.15;;;18.70;99.90;;;;;;5055413;28;20045;-67
2023/09/28 09:06:15;;;;;;;4.63;1.90;;;18.70;99.90;;;;;;5055381;28;20029;-67
2023/09/28 09:08:45;;;;;;;3.13;1.52;;;18.70;99.90;;;;;;5037335;28;20039;-67
2023/09/28 09:11:14;;;;;;;3.28;1.65;;;18.80;99.90;;;;;;5055335;28;20491;-67
2023/09/28 09:13:50;;;;;;;3.25;1.80;;;18.90;99.90;;;;;;5037053;28;20056;-67
2023/09/28 09:16:16;;;;;;;5.47;2.22;;;18.80;99.90;;;;;;5055193;28;20035;-67
2023/09/28 09:18:42;;;;;;;5.68;2.00;;;18.70;99.90;;;;;;5054836;28;20037;-67
2023/09/28 09:21:08;;;;;;;4.10;1.98;;;18.70;99.90;;;;;;5055060;28;20048;-67
2023/09/28 09:23:34;;;;;;;3.33;1.95;;;18.60;99.90;;;;;;5036971;28;20040;-67
2023/09/28 09:26:00;;;;;;;4.13;2.00;;;18.60;99.90;;;;;;5037218;28;20072;-68
2023/09/28 09:28:32;;;;;;;5.15;1.90;;;18.70;99.90;;;;;;5054623;28;20075;-67
2023/09/28 09:30:58;;;;;;;4.10;1.98;;;18.70;99.90;;;;;;5054636;28;20048;-67
2023/09/28 09:33:25;;;;;;;3.85;1.80;;;18.80;99.90;;;;;;5054472;28;20045;-67
2023/09/28 09:35:51;;;;;;;3.88;1.80;;;18.80;99.90;;;;;;5054840;28;20381;-67
2023/09/28 09:38:30;;;;;;;2.85;1.73;;;18.80;70.50;;;;;;5054842;28;20090;-67
2023/09/28 09:40:59;;;;;;;3.58;1.80;;;18.80;99.90;;;;;;5054706;28;20460;-67
2023/09/28 09:43:25;;;;;;;5.85;1.90;;;18.80;1.00;;;;;;5054320;28;20095;-67
2023/09/28 09:45:51;;;;;;;3.40;1.63;;;18.80;1.00;;;;;;5054741;28;20041;-66
2023/09/28 09:48:18;;;;;;;3.67;2.03;;;18.70;99.90;;;;;;5054255;28;20037;-67
2023/09/28 09:50:44;;;;;;;4.40;1.95;;;18.70;2.70;;;;;;5054382;28;20045;-67
2023/09/28 09:53:11;;;;;;;3.55;1.75;;;18.60;37.80;;;;;;5036356;28;20385;-67
2023/09/28 09:55:41;;;;;;;2.65;1.58;;;18.80;60.40;;;;;;5019920;28;20174;-67
2023/09/28 09:58:09;;;;;;;3.45;1.88;;;18.90;63.10;;;;;;5054230;28;20141;-66
2023/09/28 10:00:37;;;;;;;3.45;1.77;;;18.90;88.30;;;;;;5036173;28;20382;-66
2023/09/28 10:03:06;;;;;;;3.00;1.58;;;19.00;1.00;;;;;;5036149;28;20048;-67
2023/09/28 10:05:34;;;;;;;2.03;1.00;;;19.20;1.00;;;;;;5054263;28;20135;-67
2023/09/28 10:08:02;;;;;;;3.33;1.90;;;19.20;99.90;;;;;;5053896;28;20045;-67
2023/09/28 10:10:29;;;;;;;1.77;1.30;;;19.20;99.90;;;;;;5054128;28;20150;-66
2023/09/28 10:12:56;;;;;;;2.85;1.27;;;19.30;1.00;;;;;;5054124;28;20408;-67
2023/09/28 10:15:22;;;;;;;3.35;1.77;;;19.30;99.90;;;;;;5035954;28;20411;-67
2023/09/28 10:17:49;;;;;;;1.83;1.27;;;19.30;99.90;;;;;;5053716;28;20111;-67
2023/09/28 10:20:16;;;;;;;2.33;1.55;;;19.70;1.00;;;;;;5053882;28;20123;-67
2023/09/28 10:22:44;;;;;;;4.03;2.25;;;19.30;99.90;;;;;;5053958;28;20036;-67
2023/09/28 10:25:15;;;;;;;2.45;1.35;;;19.40;99.90;;;;;;5053897;28;20086;-67
2023/09/28 10:27:43;;;;;;;3.63;2.30;;;19.30;99.90;;;;;;5053803;28;20443;-67
2023/09/28 10:30:20;;;;;;;4.22;1.83;;;19.30;99.90;;;;;;5035637;28;20063;-67
2023/09/28 10:32:46;;;;;;;4.63;1.50;;;19.30;82.40;;;;;;5053266;28;20124;-69
2023/09/28 10:35:13;;;;;;;3.10;1.63;;;19.30;1.00;;;;;;5053654;28;20503;-69
2023/09/28 10:37:39;;;;;;;3.42;1.83;;;19.40;17.10;;;;;;5053616;28;20557;-66
2023/09/28 10:40:06;;;;;;;4.28;1.98;;;19.60;99.90;;;;;;5053190;28;20041;-66
2023/09/28 10:42:32;;;;;;;4.35;1.73;;;19.30;1.00;;;;;;5053365;28;20045;-66
2023/09/28 10:45:00;;;;;;;3.22;1.75;;;19.00;99.90;;;;;;5053485;28;20061;-67
2023/09/28 10:47:27;;;;;;;3.97;1.65;;;19.30;99.90;;;;;;5053516;28;20033;-66
2023/09/28 10:50:08;;;;;;;2.70;1.65;;;19.40;99.90;;;;;;5053414;28;20041;-66
2023/09/28 10:52:34;;;;;;;2.22;1.60;;;19.40;1.00;;;;;;5053487;28;20097;-67
2023/09/28 10:55:00;;;;;;;3.30;1.80;;;19.40;1.00;;;;;;5053349;28;20036;-66
2023/09/28 10:57:30;;;;;;;3.13;1.50;;;19.40;99.90;;;;;;5053292;28;20052;-67
2023/09/28 11:00:09;;;;;;;3.75;2.40;;;19.40;1.00;;;;;;5053115;28;20049;-66
2023/09/28 11:02:37;;;;;;;4.03;2.40;;;19.40;1.00;;;;;;5053105;28;20439;-66
2023/09/28 11:05:07;;;;;;;3.17;1.33;;;19.40;99.90;;;;;;5053213;28;20108;-67
2023/09/28 11:07:33;;;;;;;3.20;1.98;;;19.40;44.60;;;;;;5053227;28;20044;-68
2023/09/28 11:09:58;;;;;;;2.83;1.58;;;19.50;99.90;;;;;;5036103;28;20408;-66
2023/09/28 11:12:28;;;;;;;3.33;1.80;;;19.40;1.00;;;;;;5053170;28;20041;-66
2023/09/28 11:14:55;;;;;;;4.30;2.05;;;19.30;99.90;;;;;;5053096;28;20041;-66
2023/09/28 11:17:24;;;;;;;2.92;1.65;;;19.40;99.90;;;;;;5053057;28;20041;-66
2023/09/28 11:19:50;;;;;;;3.88;1.75;;;19.40;1.00;;;;;;5053026;28;20080;-66
2023/09/28 11:22:17;;;;;;;4.32;2.10;;;19.50;99.90;;;;;;5052747;28;20443;-66
2023/09/28 11:24:42;;;;;;;1.95;1.77;;;19.60;99.90;;;;;;5034905;28;20080;-66
2023/09/28 11:27:08;;;;;;;2.67;1.40;;;19.60;99.90;;;;;;5052962;28;20954;-66
2023/09/28 11:29:34;;;;;;;2.03;1.23;;;19.70;99.90;;;;;;5052974;28;20120;-67
2023/09/28 11:32:00;;;;;;;4.68;2.13;;;19.70;99.90;;;;;;5052661;28;20036;-66
2023/09/28 11:34:30;;;;;;;4.10;2.15;;;19.70;99.90;;;;;;5034622;28;20385;-67
2023/09/28 11:36:57;;;;;;;2.50;1.50;;;19.70;1.00;;;;;;5052978;28;20051;-66
2023/09/28 11:39:25;;;;;;;4.15;1.83;;;20.10;1.00;;;;;;5052838;28;20036;-67
2023/09/28 11:41:57;;;;;;;4.32;2.15;;;19.60;1.00;;;;;;5052791;28;20116;-66
2023/09/28 11:44:28;;;;;;;3.33;1.90;;;19.40;1.00;;;;;;5052357;28;20041;-66
2023/09/28 11:46:54;;;;;;;3.95;2.17;;;19.70;1.00;;;;;;5052898;28;20048;-66
2023/09/28 11:49:22;;;;;;;3.05;1.73;;;19.70;1.00;;;;;;5052825;28;20044;-66
2023/09/28 11:51:47;;;;;;;3.60;1.75;;;19.60;99.90;;;;;;5034693;28;20487;-66
2023/09/28 11:54:15;;;;;;;4.15;1.83;;;19.70;1.00;;;;;;5052702;28;20080;-66
2023/09/28 11:56:41;;;;;;;2.78;1.50;;;19.60;1.00;;;;;;5034548;28;20044;-66
2023/09/28 11:59:08;;;;;;;3.70;1.98;;;19.70;1.00;;;;;;5052684;28;20033;-66
2023/09/28 12:01:34;;;;;;;2.50;1.58;;;19.70;24.70;;;;;;5052611;28;20182;-66
2023/09/28 12:04:00;;;;;;;3.78;1.80;;;19.80;1.00;;;;;;5052658;28;20086;-66
2023/09/28 12:06:26;;;;;;;3.50;1.80;;;19.80;23.60;;;;;;5052512;28;20033;-65
2023/09/28 12:08:52;;;;;;;5.45;2.05;;;19.70;1.00;;;;;;5052556;28;20472;-65
2023/09/28 12:11:17;;;;;;;3.97;2.35;;;19.80;99.90;;;;;;5034750;28;20072;-65
2023/09/28 12:13:44;;;;;;;2.85;1.73;;;19.60;1.00;;;;;;5056104;28;20392;-64
2023/09/28 12:16:10;;;;;;;3.67;1.83;;;19.70;1.00;;;;;;5056325;28;20045;-65
2023/09/28 12:18:36;;;;;;;2.63;1.45;;;19.80;1.00;;;;;;5038521;28;20049;-65
2023/09/28 12:21:02;;;;;;;4.13;1.77;;;19.80;64.80;;;;;;5056197;28;20052;-65
2023/09/28 12:23:28;;;;;;;3.88;1.73;;;19.70;1.00;;;;;;5055993;28;20073;-65
2023/09/28 12:25:54;;;;;;;2.92;1.83;;;19.80;1.00;;;;;;5055872;28;20041;-66
2023/09/28 12:28:22;;;;;;;5.68;2.38;;;19.80;1.00;;;;;;5055753;28;20048;-66
2023/09/28 12:30:48;;;;;;;4.90;2.13;;;19.80;59.60;;;;;;5056089;28;20147;-65
2023/09/28 12:33:13;;;;;;;2.58;1.70;;;19.80;58.70;;;;;;5037675;28;20088;-65
2023/09/28 12:35:39;;;;;;;3.75;2.28;;;19.80;25.50;;;;;;5055924;28;20496;-65
2023/09/28 12:38:07;;;;;;;3.72;1.70;;;19.80;64.90;;;;;;5021518;28;20485;-65
2023/09/28 12:40:33;;;;;;;2.78;1.63;;;19.70;1.00;;;;;;5055507;28;20040;-65
2023/09/28 12:43:00;;;;;;;3.63;1.83;;;19.70;1.00;;;;;;5055850;28;20037;-65
2023/09/28 12:45:27;;;;;;;2.22;1.67;;;19.80;1.00;;;;;;5055864;28;20037;-65
2023/09/28 12:47:53;;;;;;;2.78;1.88;;;19.90;1.00;;;;;;5055497;28;20037;-65
2023/09/28 12:50:19;;;;;;;4.57;2.47;;;20.00;1.00;;;;;;5055309;28;20044;-65